Main page
METAR-TAF:

METAR-TAF

Airports :

Resolute Bay Airport

Resolute, Nunavut, Canada

latitude: 74-43N, longitude: 094-59W, elevation: 67 m

Current weather observation

The report was made 1 hour and 13 minutes ago, at 01:00 UTC
Wind 8 kt from the Northwest
Temperature -37°C
Humidity 66%
Pressure 1009 hPa
Visibility: 12.9 km
Clear sky
ice crystals

METAR: CYRB 200100Z CCA 32008KT 8SM IC SKC M37/M41 A2980 RMK IC1 SLP108

Time: 20:13 (02:13 UTC)

Forecast

The report was made 2 hours and 35 minutes ago, at 23:38 UTC
Forecast valid from 20 at 00 UTC to 20 at 24 UTC
Wind 12 kt from the North/Northwest
Visibility: 10 km
Few clouds at a height of 2000 ft
From 20 at 1200 UTC
Wind 12 kt from the North/Northeast
Visibility: 10 km
Clear sky

TAF: CYRB 192338Z 2000/2024 34012KT P6SM FEW020 FM201200 02012KT P6SM SKC RMK NXT FCST BY 200600Z

Weather observations and forecasts of more than 4000 airports (METAR and TAF reports).

The available stations are represented by yellow and red dots on the map.

Hover mouse over dot to see the name of the station.

Then click to see weather observations and forecasts.

To change the map : click on the green buttons with a black cross to zoom in, on the green button with a dash to zoom out, or on the green arrows for adjacent maps.


METAR-TAF: